createdAt,value
2023-07-12T00:01:01.846Z,1.63
2023-07-12T00:03:29.483Z,1.95
2023-07-12T00:05:57.560Z,1.50
2023-07-12T00:08:27.080Z,1.65
2023-07-12T00:10:56.139Z,1.17
2023-07-12T00:13:24.807Z,1.50
2023-07-12T00:15:52.826Z,1.77
2023-07-12T00:18:21.776Z,1.70
2023-07-12T00:20:50.266Z,1.50
2023-07-12T00:23:18.773Z,1.40
2023-07-12T00:25:47.452Z,1.48
2023-07-12T00:28:25.292Z,1.60
2023-07-12T00:30:57.519Z,1.40
2023-07-12T00:33:25.286Z,1.55
2023-07-12T00:35:52.848Z,1.77
2023-07-12T00:38:21.798Z,1.42
2023-07-12T00:41:03.392Z,1.70
2023-07-12T00:43:41.327Z,1.67
2023-07-12T00:46:27.018Z,2.10
2023-07-12T00:48:54.432Z,1.50
2023-07-12T00:51:24.897Z,1.40
2023-07-12T00:53:52.237Z,2.30
2023-07-12T00:56:19.756Z,1.90
2023-07-12T00:58:51.439Z,1.73
2023-07-12T01:01:18.923Z,1.97
2023-07-12T01:03:47.390Z,2.03
2023-07-12T01:06:16.951Z,2.10
2023-07-12T01:08:45.176Z,2.58
2023-07-12T01:11:13.795Z,2.00
2023-07-12T01:13:45.138Z,2.00
2023-07-12T01:16:13.518Z,2.30
2023-07-12T01:18:40.973Z,2.15
2023-07-12T01:21:13.588Z,2.20
2023-07-12T01:23:41.945Z,2.00
2023-07-12T01:26:34.415Z,2.33
2023-07-12T01:29:02.989Z,2.20
2023-07-12T01:31:34.325Z,2.22
2023-07-12T01:34:01.648Z,1.90
2023-07-12T01:36:29.820Z,2.10
2023-07-12T01:38:58.243Z,2.03
2023-07-12T01:41:26.074Z,2.72
2023-07-12T01:43:53.566Z,2.97
2023-07-12T01:46:21.601Z,2.42
2023-07-12T01:48:49.490Z,2.78
2023-07-12T01:51:18.165Z,2.30
2023-07-12T01:53:45.852Z,2.65
2023-07-12T01:56:14.676Z,2.28
2023-07-12T01:58:42.181Z,2.33
2023-07-12T02:01:10.152Z,2.50
2023-07-12T02:03:37.974Z,2.00
2023-07-12T02:06:05.371Z,2.25
2023-07-12T02:08:32.744Z,2.05
2023-07-12T02:11:00.086Z,1.80
2023-07-12T02:13:27.616Z,2.15
2023-07-12T02:15:55.045Z,1.90
2023-07-12T02:18:22.574Z,2.00
2023-07-12T02:20:50.053Z,2.15
2023-07-12T02:23:17.722Z,1.73
2023-07-12T02:25:45.143Z,1.65
2023-07-12T02:28:12.560Z,2.27
2023-07-12T02:30:39.875Z,2.50
2023-07-12T02:33:07.285Z,2.60
2023-07-12T02:35:34.665Z,1.88
2023-07-12T02:38:02.474Z,2.20
2023-07-12T02:40:30.177Z,2.27
2023-07-12T02:42:57.904Z,1.92
2023-07-12T02:45:25.325Z,2.25
2023-07-12T02:47:52.718Z,2.20
2023-07-12T02:50:21.248Z,2.28
2023-07-12T02:52:49.841Z,1.97
2023-07-12T02:55:17.289Z,2.25
2023-07-12T02:57:44.599Z,2.47
2023-07-12T03:00:13.048Z,2.53
2023-07-12T03:02:40.406Z,2.30
2023-07-12T03:05:07.987Z,2.37
2023-07-12T03:07:36.534Z,2.67
2023-07-12T03:10:04.681Z,2.70
2023-07-12T03:12:31.977Z,3.42
2023-07-12T03:14:59.267Z,2.97
2023-07-12T03:17:27.013Z,3.80
2023-07-12T03:19:54.425Z,3.33
2023-07-12T03:22:21.736Z,3.97
2023-07-12T03:24:49.104Z,3.47
2023-07-12T03:27:17.422Z,4.22
2023-07-12T03:29:44.874Z,3.43
2023-07-12T03:32:12.224Z,3.70
2023-07-12T03:34:39.539Z,3.30
2023-07-12T03:37:06.933Z,4.28
2023-07-12T03:39:34.321Z,3.92
2023-07-12T03:42:01.656Z,3.80
2023-07-12T03:44:29.038Z,3.55
2023-07-12T03:46:56.412Z,3.65
2023-07-12T03:49:23.800Z,3.05
2023-07-12T03:51:51.147Z,4.00
2023-07-12T03:54:18.479Z,2.80
2023-07-12T03:56:45.884Z,3.40
2023-07-12T03:59:13.207Z,3.10
2023-07-12T04:01:40.598Z,3.10
2023-07-12T04:04:08.008Z,3.47
2023-07-12T04:06:35.348Z,3.40
2023-07-12T04:09:03.352Z,3.38
2023-07-12T04:11:31.686Z,3.50
2023-07-12T04:14:00.539Z,2.90
2023-07-12T04:16:28.110Z,3.40
2023-07-12T04:18:55.757Z,3.23
2023-07-12T04:21:23.433Z,3.22
2023-07-12T04:23:50.982Z,3.80
2023-07-12T04:26:19.474Z,4.00
2023-07-12T04:28:50.408Z,4.38
2023-07-12T04:31:18.993Z,3.67
2023-07-12T04:33:47.315Z,4.35
2023-07-12T04:36:15.550Z,4.68
2023-07-12T04:38:42.924Z,4.88
2023-07-12T04:41:10.425Z,4.40
2023-07-12T04:43:38.030Z,4.63
2023-07-12T04:46:05.887Z,5.07
2023-07-12T04:48:34.573Z,4.93
2023-07-12T04:51:04.456Z,4.93
2023-07-12T04:53:32.318Z,5.35
2023-07-12T04:55:59.899Z,4.93
2023-07-12T04:58:27.525Z,4.68
2023-07-12T05:00:56.771Z,4.55
2023-07-12T05:03:24.811Z,5.03
2023-07-12T05:05:52.268Z,4.70
2023-07-12T05:08:19.654Z,4.63
2023-07-12T05:10:46.909Z,4.47
2023-07-12T05:13:14.715Z,4.78
2023-07-12T05:15:42.265Z,4.90
2023-07-12T05:18:09.632Z,4.72
2023-07-12T05:20:38.165Z,4.37
2023-07-12T05:23:05.582Z,5.22
2023-07-12T05:25:32.906Z,5.30
2023-07-12T05:28:02.010Z,4.28
2023-07-12T05:30:29.585Z,5.05
2023-07-12T05:32:57.010Z,4.93
2023-07-12T05:35:24.404Z,4.97
2023-07-12T05:37:52.308Z,4.70
2023-07-12T05:40:19.638Z,4.18
2023-07-12T05:42:46.956Z,4.38
2023-07-12T05:45:15.404Z,3.87
2023-07-12T05:47:49.240Z,4.45
2023-07-12T05:50:17.905Z,4.88
2023-07-12T05:52:46.581Z,5.32
2023-07-12T05:55:20.997Z,4.68
2023-07-12T05:57:49.487Z,4.13
2023-07-12T06:00:18.626Z,4.22
2023-07-12T06:02:46.528Z,4.93
2023-07-12T06:05:13.912Z,4.50
2023-07-12T06:07:42.192Z,4.75
2023-07-12T06:10:09.774Z,5.00
2023-07-12T06:12:37.080Z,4.18
2023-07-12T06:15:04.539Z,4.80
2023-07-12T06:17:32.004Z,4.70
2023-07-12T06:19:59.382Z,4.32
2023-07-12T06:22:27.404Z,4.97
2023-07-12T06:24:54.824Z,4.50
2023-07-12T06:27:22.239Z,4.35
2023-07-12T06:29:49.667Z,4.35
2023-07-12T06:32:18.452Z,4.53
2023-07-12T06:34:45.872Z,3.90
2023-07-12T06:37:13.452Z,3.28
2023-07-12T06:39:40.834Z,4.05
2023-07-12T06:42:08.432Z,4.32
2023-07-12T06:44:35.766Z,3.85
2023-07-12T06:47:03.228Z,3.10
2023-07-12T06:49:31.037Z,4.30
2023-07-12T06:51:58.731Z,4.80
2023-07-12T06:54:26.106Z,3.42
2023-07-12T06:56:53.468Z,3.67
2023-07-12T06:59:20.845Z,4.07
2023-07-12T07:01:49.000Z,3.20
2023-07-12T07:04:16.519Z,3.83
2023-07-12T07:06:44.011Z,3.45
2023-07-12T07:09:11.402Z,4.15
2023-07-12T07:11:38.854Z,3.03
2023-07-12T07:14:06.518Z,3.30
2023-07-12T07:16:33.951Z,3.20
2023-07-12T07:19:01.347Z,3.40
2023-07-12T07:21:29.507Z,3.33
2023-07-12T07:23:56.938Z,2.90
2023-07-12T07:26:24.435Z,3.03
2023-07-12T07:28:51.810Z,3.40
2023-07-12T07:31:19.246Z,3.00
2023-07-12T07:33:48.724Z,2.92
2023-07-12T07:36:16.612Z,2.80
2023-07-12T07:38:44.073Z,2.58
2023-07-12T07:41:14.495Z,3.03
2023-07-12T07:43:41.989Z,2.30
2023-07-12T07:46:10.008Z,3.08
2023-07-12T07:48:37.821Z,2.47
2023-07-12T07:51:06.970Z,2.70
2023-07-12T07:53:34.490Z,2.67
2023-07-12T07:56:01.871Z,2.85
2023-07-12T07:58:29.266Z,2.95
2023-07-12T08:00:56.681Z,2.40
2023-07-12T08:03:24.342Z,2.92
2023-07-12T08:05:51.829Z,3.15
2023-07-12T08:08:21.324Z,2.95
2023-07-12T08:10:48.804Z,3.05
2023-07-12T08:13:16.343Z,2.80
2023-07-12T08:15:44.415Z,3.30
2023-07-12T08:18:13.435Z,3.30
2023-07-12T08:20:41.679Z,2.83
2023-07-12T08:23:09.717Z,2.63
2023-07-12T08:25:37.406Z,2.90
2023-07-12T08:28:04.812Z,2.00
2023-07-12T08:30:32.360Z,2.47
2023-07-12T08:33:00.075Z,2.70
2023-07-12T08:35:41.921Z,2.50
2023-07-12T08:38:14.190Z,1.97
2023-07-12T08:40:44.671Z,2.22
2023-07-12T08:43:14.069Z,2.65
2023-07-12T08:45:42.226Z,2.40
2023-07-12T08:48:16.450Z,2.30
2023-07-12T08:50:45.958Z,2.20
2023-07-12T08:53:15.035Z,2.03
2023-07-12T08:55:42.404Z,2.60
2023-07-12T08:58:19.497Z,2.58
2023-07-12T09:00:48.339Z,2.70
2023-07-12T09:03:15.793Z,2.30
2023-07-12T09:05:43.086Z,2.58
2023-07-12T09:08:10.433Z,2.35
2023-07-12T09:10:40.709Z,2.17
2023-07-12T09:13:10.923Z,1.95
2023-07-12T09:15:44.600Z,2.50
2023-07-12T09:18:23.446Z,2.50
2023-07-12T09:20:51.962Z,2.90
2023-07-12T09:23:19.288Z,1.80
2023-07-12T09:25:49.002Z,1.73
2023-07-12T09:28:16.739Z,1.60
2023-07-12T09:30:44.352Z,1.75
2023-07-12T09:33:20.207Z,1.98
2023-07-12T09:35:47.897Z,1.70
2023-07-12T09:38:19.730Z,1.75
2023-07-12T09:40:50.965Z,2.07
2023-07-12T09:43:20.630Z,2.00
2023-07-12T09:46:10.687Z,1.83
2023-07-12T09:48:44.924Z,1.80
2023-07-12T09:51:29.956Z,1.73
2023-07-12T09:54:01.836Z,1.33
2023-07-12T09:56:44.082Z,1.42
2023-07-12T09:59:11.407Z,2.17
2023-07-12T10:01:44.932Z,1.75
2023-07-12T10:04:29.242Z,2.17
2023-07-12T10:06:57.426Z,1.90
2023-07-12T10:09:27.847Z,1.70
2023-07-12T10:11:55.175Z,1.52
2023-07-12T10:14:27.719Z,1.77
2023-07-12T10:16:56.318Z,2.08
2023-07-12T10:19:31.855Z,1.70
2023-07-12T10:22:00.806Z,2.00
2023-07-12T10:24:32.586Z,2.00
2023-07-12T10:27:01.888Z,1.83
2023-07-12T10:29:38.049Z,1.83
2023-07-12T10:32:06.371Z,2.00
2023-07-12T10:34:36.601Z,2.17
2023-07-12T10:37:06.919Z,1.75
2023-07-12T10:39:34.285Z,1.85
2023-07-12T10:42:07.609Z,1.70
2023-07-12T10:44:38.353Z,1.80
2023-07-12T10:47:08.663Z,1.67
2023-07-12T10:49:38.968Z,1.83
2023-07-12T10:52:06.455Z,1.85
2023-07-12T10:54:33.709Z,1.67
2023-07-12T10:57:07.444Z,1.80
2023-07-12T10:59:34.745Z,1.80
2023-07-12T11:02:05.209Z,1.95
2023-07-12T11:04:33.235Z,1.70
2023-07-12T11:07:00.760Z,1.52
2023-07-12T11:09:51.197Z,1.70
2023-07-12T11:12:30.620Z,1.40
2023-07-12T11:15:18.103Z,1.55
2023-07-12T11:17:54.552Z,1.63
2023-07-12T11:20:26.179Z,1.50
2023-07-12T11:22:55.661Z,1.40
2023-07-12T11:25:32.197Z,2.00
2023-07-12T11:27:59.562Z,1.67
2023-07-12T11:30:29.950Z,1.45
2023-07-12T11:33:03.597Z,1.98
2023-07-12T11:35:48.201Z,1.53
2023-07-12T11:38:20.375Z,1.50
2023-07-12T11:40:51.789Z,1.80
2023-07-12T11:43:24.955Z,1.50
2023-07-12T11:45:53.153Z,1.40
2023-07-12T11:48:21.222Z,1.50
2023-07-12T11:50:54.779Z,1.80
2023-07-12T11:53:22.407Z,1.98
2023-07-12T11:55:50.525Z,1.60
2023-07-12T11:58:19.232Z,1.50
2023-07-12T12:00:47.043Z,1.43
2023-07-12T12:03:15.443Z,1.40
2023-07-12T12:05:44.545Z,1.92
2023-07-12T12:08:19.744Z,1.77
2023-07-12T12:10:49.145Z,1.48
2023-07-12T12:13:19.777Z,1.50
2023-07-12T12:16:00.205Z,0.90
2023-07-12T12:18:27.740Z,1.23
2023-07-12T12:20:55.619Z,1.20
2023-07-12T12:23:27.967Z,1.52
2023-07-12T12:25:55.357Z,1.03
2023-07-12T12:28:25.990Z,1.73
2023-07-12T12:31:04.271Z,1.58
2023-07-12T12:33:31.966Z,1.35
2023-07-12T12:36:00.681Z,1.38
2023-07-12T12:38:29.495Z,1.40
2023-07-12T12:41:02.878Z,1.35
2023-07-12T12:43:30.223Z,1.40
2023-07-12T12:53:13.492Z,0.70
2023-07-12T12:54:10.482Z,0.73
2023-07-12T13:01:47.072Z,1.20
2023-07-12T13:04:54.151Z,0.90
2023-07-12T13:07:36.307Z,0.75
2023-07-12T13:14:37.950Z,1.10
2023-07-12T13:16:36.177Z,0.80
2023-07-12T13:20:57.258Z,0.80
2023-07-12T13:23:25.151Z,0.88
2023-07-12T13:25:53.478Z,1.02
2023-07-12T13:28:21.591Z,0.85
2023-07-12T13:30:49.158Z,1.17
2023-07-12T13:33:16.823Z,0.65
2023-07-12T13:42:42.047Z,0.60
2023-07-12T13:46:13.161Z,0.77
2023-07-12T13:48:41.587Z,1.02
2023-07-12T13:51:17.620Z,0.93
2023-07-12T13:53:44.904Z,0.80
2023-07-12T13:59:01.784Z,1.13
2023-07-12T14:01:42.803Z,0.95
2023-07-12T14:09:18.967Z,0.73
2023-07-12T14:11:46.812Z,0.90
2023-07-12T14:14:16.223Z,1.00
2023-07-12T14:16:43.901Z,0.93
2023-07-12T14:19:11.481Z,1.13
2023-07-12T14:21:39.479Z,0.80
2023-07-12T14:24:07.002Z,1.25
2023-07-12T14:26:35.394Z,1.38
2023-07-12T14:29:05.243Z,0.82
2023-07-12T14:31:37.213Z,1.10
2023-07-12T14:34:05.799Z,0.90
2023-07-12T14:36:33.278Z,0.88
2023-07-12T14:39:01.744Z,1.00
2023-07-12T14:41:34.564Z,0.70
2023-07-12T14:44:16.638Z,1.13
2023-07-12T14:46:44.713Z,0.80
2023-07-12T14:49:12.206Z,0.90
2023-07-12T14:51:41.116Z,1.02
2023-07-12T14:54:13.714Z,0.88
2023-07-12T14:56:41.145Z,1.00
2023-07-12T14:59:15.731Z,0.73
2023-07-12T15:01:43.082Z,0.70
2023-07-12T15:04:15.502Z,0.80
2023-07-12T15:06:42.823Z,0.75
2023-07-12T15:09:14.349Z,0.80
2023-07-12T15:11:43.090Z,0.83
2023-07-12T15:14:12.308Z,0.70
2023-07-12T15:16:41.725Z,1.00
2023-07-12T15:19:09.307Z,0.73
2023-07-12T15:21:36.765Z,0.73
2023-07-12T15:24:04.133Z,0.60
2023-07-12T15:26:31.428Z,0.70
2023-07-12T15:28:58.814Z,1.00
2023-07-12T15:31:29.329Z,0.90
2023-07-12T15:33:59.365Z,0.85
2023-07-12T15:36:28.445Z,1.00
2023-07-12T15:38:55.701Z,0.80
2023-07-12T15:41:24.035Z,0.70
2023-07-12T15:43:55.915Z,0.82
2023-07-12T15:46:27.029Z,0.85
2023-07-12T15:48:55.379Z,1.10
2023-07-12T15:51:43.587Z,0.80
2023-07-12T15:54:18.996Z,1.10
2023-07-12T15:56:46.748Z,0.77
2023-07-12T15:59:17.836Z,0.90
2023-07-12T16:01:45.399Z,0.70
2023-07-12T16:04:19.848Z,0.73
2023-07-12T16:06:47.921Z,1.17
2023-07-12T16:09:15.430Z,1.30
2023-07-12T16:11:47.286Z,0.93
2023-07-12T16:14:18.493Z,1.00
2023-07-12T16:16:46.221Z,1.38
2023-07-12T16:19:16.394Z,1.23
2023-07-12T16:21:43.709Z,1.20
2023-07-12T16:24:12.107Z,1.50
2023-07-12T16:26:40.317Z,1.30
2023-07-12T16:29:09.435Z,1.38
2023-07-12T16:31:42.146Z,1.15
2023-07-12T16:34:17.244Z,1.08
2023-07-12T16:36:45.604Z,1.15
2023-07-12T16:39:13.862Z,1.27
2023-07-12T16:41:43.898Z,1.20
2023-07-12T16:44:24.643Z,0.80
2023-07-12T16:46:52.244Z,1.20
2023-07-12T16:49:19.665Z,0.95
2023-07-12T16:51:56.237Z,1.03
2023-07-12T16:54:23.632Z,1.25
2023-07-12T16:56:51.042Z,1.45
2023-07-12T16:59:18.996Z,1.30
2023-07-12T17:01:47.000Z,1.00
2023-07-12T17:04:16.050Z,0.80
2023-07-12T17:06:43.391Z,1.20
2023-07-12T17:09:25.122Z,1.20
2023-07-12T17:11:53.901Z,0.90
2023-07-12T17:14:21.442Z,0.90
2023-07-12T17:16:49.095Z,0.83
2023-07-12T17:19:16.638Z,1.10
2023-07-12T17:21:44.087Z,1.30
2023-07-12T17:24:18.405Z,1.15
2023-07-12T17:26:46.334Z,1.00
2023-07-12T17:29:14.806Z,1.27
2023-07-12T17:31:43.588Z,1.33
2023-07-12T17:34:32.826Z,1.02
2023-07-12T17:37:00.180Z,1.00
2023-07-12T17:39:28.162Z,1.38
2023-07-12T17:41:55.724Z,1.53
2023-07-12T17:44:23.570Z,1.30
2023-07-12T17:46:51.966Z,1.13
2023-07-12T17:49:20.081Z,1.00
2023-07-12T17:51:47.885Z,1.30
2023-07-12T17:54:15.806Z,1.43
2023-07-12T17:56:43.266Z,1.50
2023-07-12T17:59:10.936Z,1.17
2023-07-12T18:01:38.858Z,1.00
2023-07-12T18:04:06.710Z,1.13
2023-07-12T18:06:34.397Z,1.30
2023-07-12T18:09:02.248Z,0.90
2023-07-12T18:11:34.169Z,1.23
2023-07-12T18:14:02.828Z,1.50
2023-07-12T18:16:31.449Z,1.15
2023-07-12T18:18:58.914Z,1.70
2023-07-12T18:21:28.052Z,1.35
2023-07-12T18:23:56.364Z,1.45
2023-07-12T18:26:24.258Z,1.05
2023-07-12T18:28:51.732Z,1.70
2023-07-12T18:31:22.188Z,1.73
2023-07-12T18:33:49.666Z,1.42
2023-07-12T18:36:18.506Z,1.30
2023-07-12T18:38:50.309Z,1.60
2023-07-12T18:41:22.241Z,0.95
2023-07-12T18:43:50.190Z,1.27
2023-07-12T18:46:17.983Z,0.93
2023-07-12T18:48:46.094Z,1.17
2023-07-12T18:51:13.372Z,1.05
2023-07-12T18:53:43.098Z,1.33
2023-07-12T18:56:18.207Z,1.00
2023-07-12T18:58:46.337Z,1.17
2023-07-12T19:01:21.034Z,1.35
2023-07-12T19:03:48.746Z,1.27
2023-07-12T19:06:20.800Z,1.50
2023-07-12T19:08:48.338Z,1.40
2023-07-12T19:11:23.596Z,1.10
2023-07-12T19:13:51.869Z,1.67
2023-07-12T19:16:19.425Z,1.40
2023-07-12T19:18:46.962Z,1.58
2023-07-12T19:21:24.995Z,1.10
2023-07-12T19:23:52.949Z,1.13
2023-07-12T19:26:20.757Z,1.30
2023-07-12T19:28:48.160Z,1.92
2023-07-12T19:31:41.894Z,1.25
2023-07-12T19:34:16.923Z,1.30
2023-07-12T19:36:44.658Z,1.70
2023-07-12T19:39:13.461Z,1.40
2023-07-12T19:41:41.114Z,1.40
2023-07-12T19:44:08.584Z,1.58
2023-07-12T19:46:36.222Z,1.37
2023-07-12T19:49:04.792Z,1.60
2023-07-12T19:51:33.983Z,1.42
2023-07-12T19:54:03.199Z,1.60
2023-07-12T19:56:31.388Z,1.55
2023-07-12T19:58:59.556Z,2.00
2023-07-12T20:01:28.082Z,1.50
2023-07-12T20:03:56.733Z,1.60
2023-07-12T20:06:24.443Z,1.33
2023-07-12T20:08:56.686Z,1.50
2023-07-12T20:11:24.785Z,1.30
2023-07-12T20:13:52.544Z,1.95
2023-07-12T20:16:25.173Z,1.73
2023-07-12T20:18:52.692Z,1.70
2023-07-12T20:21:20.750Z,1.70
2023-07-12T20:23:49.301Z,1.90
2023-07-12T20:26:18.594Z,1.80
2023-07-12T20:28:46.027Z,1.50
2023-07-12T20:31:14.600Z,1.55
2023-07-12T20:33:42.570Z,1.20
2023-07-12T20:36:10.886Z,1.37
2023-07-12T20:38:38.539Z,1.67
2023-07-12T20:41:06.336Z,1.60
2023-07-12T20:43:33.809Z,1.70
2023-07-12T20:46:02.350Z,1.88
2023-07-12T20:48:33.087Z,1.23
2023-07-12T20:51:01.238Z,1.75
2023-07-12T20:53:28.718Z,1.40
2023-07-12T20:55:56.063Z,1.33
2023-07-12T20:58:23.375Z,1.45
2023-07-12T21:00:50.818Z,1.70
2023-07-12T21:03:18.502Z,1.50
2023-07-12T21:05:46.121Z,1.30
2023-07-12T21:08:14.198Z,1.80
2023-07-12T21:10:41.616Z,1.80
2023-07-12T21:13:08.949Z,1.73
2023-07-12T21:15:36.206Z,1.40
2023-07-12T21:18:03.730Z,1.50
2023-07-12T21:20:31.066Z,1.88
2023-07-12T21:22:58.506Z,1.42
2023-07-12T21:25:25.917Z,1.87
2023-07-12T21:27:53.249Z,1.88
2023-07-12T21:30:20.609Z,1.55
2023-07-12T21:32:48.202Z,1.40
2023-07-12T21:35:15.634Z,1.88
2023-07-12T21:37:42.898Z,1.13
2023-07-12T21:40:10.841Z,1.50
2023-07-12T21:42:38.291Z,1.80
2023-07-12T21:45:05.813Z,1.38
2023-07-12T21:47:33.197Z,2.00
2023-07-12T21:50:02.663Z,1.77
2023-07-12T21:52:30.538Z,1.52
2023-07-12T21:54:58.355Z,1.75
2023-07-12T21:57:27.153Z,1.27
2023-07-12T21:59:54.524Z,2.35
2023-07-12T22:02:22.033Z,1.20
2023-07-12T22:04:49.770Z,1.40
2023-07-12T22:07:17.939Z,1.90
2023-07-12T22:09:45.253Z,1.63
2023-07-12T22:12:12.698Z,2.00
2023-07-12T22:14:39.986Z,1.60
2023-07-12T22:17:11.951Z,1.65
2023-07-12T22:19:39.368Z,1.67
2023-07-12T22:22:11.169Z,1.88
2023-07-12T22:24:39.512Z,1.88
2023-07-12T22:27:07.550Z,1.33
2023-07-12T22:29:39.091Z,1.30
2023-07-12T22:32:07.213Z,2.08
2023-07-12T22:34:35.150Z,2.35
2023-07-12T22:37:02.785Z,2.10
2023-07-12T22:39:30.416Z,1.97
2023-07-12T22:41:58.044Z,1.83
2023-07-12T22:44:25.365Z,1.98
2023-07-12T22:46:53.709Z,1.77
2023-07-12T22:49:21.205Z,2.08
2023-07-12T22:51:48.848Z,1.60
2023-07-12T22:54:16.156Z,2.15
2023-07-12T22:56:47.780Z,2.35
2023-07-12T22:59:16.286Z,2.50
2023-07-12T23:01:44.912Z,2.13
2023-07-12T23:04:12.648Z,1.90
2023-07-12T23:06:41.135Z,1.75
2023-07-12T23:09:08.978Z,2.25
2023-07-12T23:11:36.230Z,2.05
2023-07-12T23:14:04.886Z,2.15
2023-07-12T23:16:32.240Z,2.27
2023-07-12T23:18:59.572Z,2.05
2023-07-12T23:21:27.137Z,1.75
2023-07-12T23:23:54.484Z,2.13
2023-07-12T23:26:22.021Z,2.53
2023-07-12T23:28:49.366Z,2.33
2023-07-12T23:31:17.008Z,2.22
2023-07-12T23:33:44.592Z,2.72
2023-07-12T23:36:13.696Z,2.13
2023-07-12T23:38:42.886Z,2.10
2023-07-12T23:41:11.032Z,2.43
2023-07-12T23:43:38.903Z,2.15
2023-07-12T23:46:06.453Z,2.17
2023-07-12T23:48:34.073Z,2.35
2023-07-12T23:51:01.633Z,2.78
2023-07-12T23:53:29.265Z,1.97
2023-07-12T23:55:56.913Z,2.63
2023-07-12T23:58:24.262Z,2.35
